Time;durP1;ratioP1;P1;durP2;ratioP2;P2;SDS_P1;SDS_P2;PMS_P1;PMS_P2;Temp;Humidity;BMP_temperature;BMP_pressure;BME280_temperature;BME280_humidity;BME280_pressure;Samples;Min_cycle;Max_cycle;Signal;HPM_P1;HPM_P2
2024/04/16 00:01:43;;;;;;;0.90;0.80;;;;;;;8.58;91.76;98903.84;5460483;26;20034;-65
2024/04/16 00:04:09;;;;;;;1.20;1.08;;;;;;;8.72;91.20;98903.06;5447351;26;20002;-66
2024/04/16 00:06:35;;;;;;;1.42;1.10;;;;;;;9.00;89.94;98905.72;5497632;26;20016;-64
2024/04/16 00:09:00;;;;;;;1.48;0.95;;;;;;;8.93;89.15;98908.38;5436373;26;19991;-64
2024/04/16 00:11:26;;;;;;;1.58;1.10;;;;;;;9.05;88.34;98900.72;5480094;26;19998;-64
2024/04/16 00:13:51;;;;;;;1.15;0.65;;;;;;;8.84;89.74;98908.81;5449050;26;20013;-64
2024/04/16 00:16:28;;;;;;;0.93;0.80;;;;;;;8.86;89.37;98898.44;5450127;26;20006;-65
2024/04/16 00:18:53;;;;;;;1.17;0.70;;;;;;;8.74;88.72;98898.06;5451042;26;20098;-64
2024/04/16 00:21:19;;;;;;;4.55;0.98;;;;;;;8.94;88.45;98899.94;5474535;26;20005;-65
2024/04/16 00:23:44;;;;;;;0.60;0.60;;;;;;;8.73;88.12;98894.63;5424897;26;20333;-65
2024/04/16 00:26:09;;;;;;;0.60;0.60;;;;;;;8.53;89.48;98900.78;5418908;26;20482;-64
2024/04/16 00:28:35;;;;;;;0.80;0.80;;;;;;;8.77;88.60;98894.59;5479204;26;20113;-64
2024/04/16 00:31:00;;;;;;;0.80;0.73;;;;;;;8.78;88.84;98896.16;5447956;26;20369;-66
2024/04/16 00:33:26;;;;;;;1.67;0.88;;;;;;;8.72;88.47;98890.41;5455031;26;20002;-64
2024/04/16 00:35:51;;;;;;;1.13;0.68;;;;;;;8.83;88.30;98903.81;5477964;26;20009;-64
2024/04/16 00:38:16;;;;;;;0.63;0.63;;;;;;;8.77;87.67;98884.66;5474087;26;20482;-64
2024/04/16 00:40:42;;;;;;;1.55;0.70;;;;;;;8.66;88.01;98894.63;5473749;26;19990;-65
2024/04/16 00:43:16;;;;;;;1.45;0.90;;;;;;;8.81;87.38;98890.00;5460811;26;20474;-63
2024/04/16 00:45:56;;;;;;;1.60;0.80;;;;;;;8.83;87.85;98901.88;5485079;26;20014;-66
2024/04/16 00:48:24;;;;;;;0.73;0.43;;;;;;;8.67;88.09;98890.78;5483993;26;20009;-65
2024/04/16 00:50:49;;;;;;;1.60;0.70;;;;;;;8.78;86.29;98883.50;5423189;26;20438;-66
2024/04/16 00:53:16;;;;;;;0.47;0.47;;;;;;;8.61;87.42;98892.34;5451071;26;20049;-64
2024/04/16 00:55:42;;;;;;;0.55;0.55;;;;;;;8.72;87.87;98886.97;5486671;26;20009;-66
2024/04/16 00:58:09;;;;;;;0.90;0.60;;;;;;;8.99;86.29;98888.84;5470671;26;20042;-64
2024/04/16 01:00:34;;;;;;;0.55;0.55;;;;;;;8.50;87.63;98888.88;5426623;26;19994;-65
2024/04/16 01:03:00;;;;;;;1.05;0.70;;;;;;;8.35;88.65;98890.03;5477402;26;19994;-65
2024/04/16 01:05:26;;;;;;;0.30;0.30;;;;;;;8.66;86.96;98883.91;5476123;26;20013;-65
2024/04/16 01:07:53;;;;;;;0.95;0.57;;;;;;;8.95;86.20;98879.25;5448698;26;20460;-65
2024/04/16 01:10:18;;;;;;;0.65;0.52;;;;;;;8.68;86.18;98880.81;5480059;26;20017;-64
2024/04/16 01:12:46;;;;;;;1.90;0.63;;;;;;;8.53;87.47;98890.81;5475819;26;20870;-64
2024/04/16 01:15:12;;;;;;;0.50;0.40;;;;;;;8.80;87.56;98885.78;5478314;26;19998;-66
2024/04/16 01:17:39;;;;;;;0.40;0.40;;;;;;;8.77;86.41;98884.66;5477998;26;20017;-65
2024/04/16 01:20:06;;;;;;;0.68;0.68;;;;;;;8.70;87.10;98886.56;5443952;26;20021;-66
2024/04/16 01:22:32;;;;;;;0.60;0.47;;;;;;;8.84;86.65;98890.03;5449604;26;19999;-65
2024/04/16 01:24:57;;;;;;;0.32;0.32;;;;;;;8.89;85.92;98886.94;5479925;26;19994;-64
2024/04/16 01:27:23;;;;;;;0.70;0.65;;;;;;;8.96;86.29;98880.78;5435777;26;20018;-65
2024/04/16 01:29:48;;;;;;;6.75;0.40;;;;;;;8.87;85.82;98883.09;5477367;26;20009;-66
2024/04/16 01:32:15;;;;;;;0.80;0.65;;;;;;;8.96;85.97;98880.78;5483911;26;19998;-66
2024/04/16 01:34:41;;;;;;;0.57;0.57;;;;;;;8.84;86.03;98876.59;5467864;26;20034;-68
2024/04/16 01:37:07;;;;;;;0.63;0.63;;;;;;;8.78;86.66;98866.63;5479644;26;20341;-65
2024/04/16 01:39:33;;;;;;;0.73;0.68;;;;;;;8.88;86.66;98866.59;5477512;26;20618;-64
2024/04/16 01:41:58;;;;;;;0.85;0.55;;;;;;;8.77;86.17;98859.72;5476257;26;20010;-64
2024/04/16 01:44:23;;;;;;;0.45;0.45;;;;;;;8.95;85.84;98860.44;5445528;26;20002;-65
2024/04/16 01:46:49;;;;;;;0.60;0.60;;;;;;;8.81;87.03;98855.13;5471250;26;20528;-65
2024/04/16 01:49:14;;;;;;;0.85;0.63;;;;;;;8.70;87.02;98868.56;5449569;26;20016;-65
2024/04/16 01:51:40;;;;;;;0.93;0.68;;;;;;;8.47;87.28;98862.84;5465400;26;20018;-67
2024/04/16 01:54:05;;;;;;;1.88;0.73;;;;;;;8.36;88.82;98859.41;5478533;26;20002;-66
2024/04/16 01:56:31;;;;;;;0.47;0.47;;;;;;;8.66;89.00;98867.81;5476893;26;20503;-64
2024/04/16 01:58:56;;;;;;;0.98;0.82;;;;;;;8.66;88.40;98867.81;5471817;26;20067;-64
2024/04/16 02:01:22;;;;;;;2.15;0.98;;;;;;;8.86;87.31;98866.25;5469837;26;20347;-66
2024/04/16 02:03:48;;;;;;;2.53;0.68;;;;;;;8.71;87.42;98867.41;5477144;26;20544;-67
2024/04/16 02:06:13;;;;;;;1.13;0.63;;;;;;;8.75;88.38;98862.78;5445726;26;20011;-65
2024/04/16 02:08:39;;;;;;;0.70;0.70;;;;;;;8.85;87.29;98856.66;5478552;26;19991;-65
2024/04/16 02:11:05;;;;;;;1.08;0.88;;;;;;;8.92;87.87;98861.25;5479294;26;20017;-65
2024/04/16 02:13:30;;;;;;;2.00;1.38;;;;;;;8.75;87.34;98860.13;5409178;26;20030;-66
2024/04/16 02:15:56;;;;;;;1.00;0.82;;;;;;;8.63;87.55;98862.44;5451117;26;20038;-64
2024/04/16 02:18:21;;;;;;;1.95;1.10;;;;;;;8.85;87.70;98870.06;5476058;26;20043;-65
2024/04/16 02:20:47;;;;;;;1.05;1.00;;;;;;;8.98;87.16;98873.13;5455008;26;20397;-64
2024/04/16 02:23:12;;;;;;;1.83;0.90;;;;;;;8.99;86.88;98867.34;5474839;26;20010;-65
2024/04/16 02:25:45;;;;;;;1.33;0.80;;;;;;;9.23;86.37;98868.44;5472392;26;19999;-65
2024/04/16 02:28:11;;;;;;;1.73;0.90;;;;;;;9.39;85.80;98871.41;5478457;26;20426;-65
2024/04/16 02:30:37;;;;;;;0.85;0.73;;;;;;;9.40;85.51;98867.59;5486854;26;19998;-65
2024/04/16 02:33:03;;;;;;;1.88;0.95;;;;;;;9.40;84.91;98861.44;5471683;26;19999;-65
2024/04/16 02:35:31;;;;;;;3.72;0.82;;;;;;;9.30;85.38;98873.00;5455842;26;20021;-64
2024/04/16 02:37:56;;;;;;;1.63;1.08;;;;;;;9.27;85.77;98874.53;5479954;26;20671;-66
2024/04/16 02:40:22;;;;;;;1.35;0.93;;;;;;;9.42;85.04;98875.25;5479296;26;19998;-64
2024/04/16 02:42:47;;;;;;;0.32;0.32;;;;;;;8.99;85.96;98863.91;5466020;26;20332;-66
2024/04/16 02:45:13;;;;;;;1.13;0.60;;;;;;;9.13;87.29;98868.47;5478149;26;20422;-64
2024/04/16 02:47:38;;;;;;;1.33;0.95;;;;;;;9.14;86.93;98870.00;5475608;26;20340;-65
2024/04/16 02:50:04;;;;;;;1.13;0.80;;;;;;;8.98;86.97;98867.75;5445650;26;20002;-65
2024/04/16 02:52:30;;;;;;;1.25;0.93;;;;;;;8.94;87.30;98875.78;5445785;26;20006;-65
2024/04/16 02:54:56;;;;;;;0.77;0.68;;;;;;;8.84;88.75;98873.91;5480583;26;20011;-64
2024/04/16 02:57:22;;;;;;;0.60;0.60;;;;;;;9.00;87.65;98876.19;5469677;26;20460;-65
2024/04/16 02:59:48;;;;;;;1.83;0.73;;;;;;;9.01;87.72;98875.78;5425012;26;19994;-66
2024/04/16 03:02:14;;;;;;;0.95;0.90;;;;;;;8.98;87.09;98873.84;5450023;26;20372;-66
2024/04/16 03:04:40;;;;;;;0.80;0.80;;;;;;;8.94;86.94;98867.72;5479343;26;20009;-65
2024/04/16 03:07:05;;;;;;;0.82;0.55;;;;;;;8.99;87.57;98870.03;5455384;26;20027;-65
2024/04/16 03:09:30;;;;;;;1.38;0.50;;;;;;;8.87;87.00;98873.13;5448498;26;20002;-65
2024/04/16 03:11:56;;;;;;;1.08;0.85;;;;;;;8.65;88.91;98863.56;5469047;26;19995;-64
2024/04/16 03:14:21;;;;;;;1.15;0.63;;;;;;;8.69;89.02;98871.63;5451406;26;20496;-65
2024/04/16 03:16:47;;;;;;;2.58;1.27;;;;;;;8.50;89.81;98863.97;5452768;26;19994;-65
2024/04/16 03:19:12;;;;;;;2.70;0.70;;;;;;;8.44;90.37;98866.28;5449102;26;20091;-65
2024/04/16 03:21:37;;;;;;;0.52;0.50;;;;;;;8.43;91.90;98869.34;5444833;26;20103;-65
2024/04/16 03:24:03;;;;;;;0.90;0.68;;;;;;;8.68;91.53;98859.34;5472788;26;20410;-65
2024/04/16 03:26:29;;;;;;;0.70;0.63;;;;;;;8.57;91.54;98870.13;5424195;26;20002;-66
2024/04/16 03:28:54;;;;;;;0.80;0.70;;;;;;;8.77;90.46;98862.41;5441591;26;20014;-65
2024/04/16 03:31:19;;;;;;;1.15;1.05;;;;;;;8.66;90.18;98865.13;5478535;26;20007;-65
2024/04/16 03:33:45;;;;;;;1.42;0.90;;;;;;;8.68;90.66;98854.75;5478644;26;20466;-67
2024/04/16 03:36:10;;;;;;;1.98;0.65;;;;;;;8.89;89.67;98864.69;5445002;26;20001;-65
2024/04/16 03:38:36;;;;;;;0.50;0.50;;;;;;;9.15;88.16;98871.53;5471362;26;20010;-64
2024/04/16 03:41:01;;;;;;;0.40;0.40;;;;;;;9.17;87.38;98878.03;5475397;26;19994;-65
2024/04/16 03:43:28;;;;;;;1.35;0.77;;;;;;;9.15;86.64;98874.97;5456233;26;19994;-66
2024/04/16 03:45:54;;;;;;;0.82;0.70;;;;;;;9.06;87.47;98882.66;5448409;26;20098;-64
2024/04/16 03:48:21;;;;;;;0.55;0.55;;;;;;;9.02;87.84;98879.22;5478901;26;20014;-65
2024/04/16 03:50:47;;;;;;;1.50;0.80;;;;;;;9.15;87.13;98887.63;5471783;26;20095;-64
2024/04/16 03:53:12;;;;;;;0.75;0.63;;;;;;;9.02;87.38;98889.94;5453914;26;19994;-64
2024/04/16 03:55:38;;;;;;;0.88;0.60;;;;;;;8.97;87.38;98895.72;5457608;26;20006;-65
2024/04/16 03:58:03;;;;;;;0.70;0.70;;;;;;;8.78;87.75;98896.16;5421791;26;20018;-64
2024/04/16 04:03:17;;;;;;;2.42;1.05;;;;;;;8.83;88.07;98899.22;5469522;26;20025;-66
2024/04/16 04:05:46;;;;;;;1.60;0.82;;;;;;;8.83;87.56;98895.75;5473837;26;20003;-64
2024/04/16 04:08:12;;;;;;;0.90;0.60;;;;;;;8.96;86.60;98905.69;5472932;26;20006;-66
2024/04/16 04:10:38;;;;;;;2.42;0.73;;;;;;;8.86;87.79;98903.81;5448965;26;20066;-64
2024/04/16 04:13:04;;;;;;;1.23;0.88;;;;;;;8.78;88.02;98907.66;5438867;26;20514;-66
2024/04/16 04:15:29;;;;;;;5.45;1.00;;;;;;;8.83;88.21;98911.84;5440070;26;19998;-68
2024/04/16 04:17:55;;;;;;;0.88;0.75;;;;;;;8.63;88.03;98911.47;5473048;26;20006;-65
2024/04/16 04:20:20;;;;;;;0.52;0.52;;;;;;;8.69;88.60;98907.25;5475842;26;19994;-64
2024/04/16 04:22:46;;;;;;;1.15;0.90;;;;;;;8.90;87.36;98898.44;5441741;26;19990;-64
2024/04/16 04:25:11;;;;;;;1.08;0.82;;;;;;;8.62;87.26;98903.81;5479949;26;20009;-64
2024/04/16 04:27:41;;;;;;;3.75;0.70;;;;;;;8.50;87.76;98912.25;5448668;26;20013;-64
2024/04/16 04:30:07;;;;;;;1.25;1.00;;;;;;;8.64;87.53;98907.66;5446346;26;20013;-65
2024/04/16 04:32:33;;;;;;;1.23;0.52;;;;;;;8.76;86.02;98903.81;5482397;26;20013;-64
2024/04/16 04:34:59;;;;;;;0.70;0.70;;;;;;;8.84;87.08;98916.84;5471715;26;20003;-64
2024/04/16 04:37:25;;;;;;;2.30;1.17;;;;;;;8.77;87.31;98916.84;5475864;26;20474;-66
2024/04/16 04:39:51;;;;;;;1.05;0.95;;;;;;;8.99;86.40;98913.00;5442234;26;19998;-64
2024/04/16 04:42:16;;;;;;;0.90;0.85;;;;;;;9.24;85.25;98920.22;5414201;26;19998;-64
2024/04/16 04:44:42;;;;;;;1.63;1.00;;;;;;;9.06;85.88;98917.56;5477701;26;19998;-66
2024/04/16 04:47:07;;;;;;;1.70;0.65;;;;;;;9.24;85.47;98922.91;5477034;26;20463;-64
2024/04/16 04:49:33;;;;;;;1.33;0.95;;;;;;;9.16;84.57;98921.38;5447110;26;20002;-65
2024/04/16 04:51:58;;;;;;;1.27;0.98;;;;;;;9.19;85.44;98926.75;5439749;26;19991;-66
2024/04/16 04:54:24;;;;;;;0.88;0.70;;;;;;;9.30;84.83;98926.72;5479834;26;19994;-64
2024/04/16 04:56:49;;;;;;;1.80;1.20;;;;;;;9.26;84.36;98932.09;5477053;26;20471;-64
2024/04/16 04:59:15;;;;;;;5.97;1.20;;;;;;;9.22;84.95;98928.66;5447388;26;19998;-67
2024/04/16 05:01:40;;;;;;;2.20;1.35;;;;;;;9.31;84.61;98936.31;5419024;26;20013;-65
2024/04/16 05:04:06;;;;;;;2.08;1.13;;;;;;;9.40;84.34;98936.66;5478923;26;21169;-64
2024/04/16 05:06:32;;;;;;;1.05;0.63;;;;;;;9.51;83.81;98938.16;5475338;26;20017;-63
2024/04/16 05:08:59;;;;;;;2.00;1.10;;;;;;;9.49;83.95;98940.47;5452721;26;19999;-65
2024/04/16 05:11:24;;;;;;;1.38;1.00;;;;;;;9.48;84.03;98938.94;5478212;26;20280;-64
2024/04/16 05:13:50;;;;;;;1.85;1.02;;;;;;;9.28;84.82;98939.75;5469047;26;19998;-65
2024/04/16 05:16:15;;;;;;;2.05;1.42;;;;;;;9.55;84.48;98938.91;5439445;26;19999;-65
2024/04/16 05:18:41;;;;;;;1.48;1.30;;;;;;;9.45;84.45;98947.00;5476931;26;20009;-67
2024/04/16 05:21:06;;;;;;;1.55;1.20;;;;;;;9.50;84.19;98941.25;5475582;26;20035;-64
2024/04/16 05:23:32;;;;;;;10.00;1.52;;;;;;;9.61;83.54;98952.72;5471308;26;20009;-65
2024/04/16 05:26:02;;;;;;;1.20;0.95;;;;;;;9.67;83.44;98951.94;5473523;26;20013;-66
2024/04/16 05:28:29;;;;;;;1.73;1.02;;;;;;;9.61;83.33;98950.03;5481339;26;20002;-65
2024/04/16 05:30:54;;;;;;;2.03;1.17;;;;;;;9.39;83.58;98948.56;5474090;26;19998;-65
2024/04/16 05:33:20;;;;;;;2.85;1.48;;;;;;;9.26;85.08;98944.75;5474775;26;20063;-65
2024/04/16 05:35:45;;;;;;;2.25;1.10;;;;;;;9.46;84.13;98948.53;5472135;26;20340;-65
2024/04/16 05:38:11;;;;;;;3.15;0.88;;;;;;;9.61;83.52;98947.34;5476438;26;20503;-64
2024/04/16 05:40:36;;;;;;;2.75;1.23;;;;;;;9.46;84.20;98948.53;5435633;26;20006;-65
2024/04/16 05:43:02;;;;;;;1.48;1.08;;;;;;;9.47;84.16;98942.78;5470040;26;20455;-65
2024/04/16 05:45:27;;;;;;;1.35;0.90;;;;;;;9.46;83.96;98945.84;5474099;26;20005;-65
2024/04/16 05:47:53;;;;;;;2.05;1.48;;;;;;;9.30;84.79;98945.50;5467521;26;20002;-64
2024/04/16 05:50:18;;;;;;;1.30;0.80;;;;;;;9.39;84.02;98952.00;5439759;26;20058;-66
2024/04/16 05:52:44;;;;;;;1.33;0.75;;;;;;;9.43;84.26;98946.63;5412156;26;19991;-66
2024/04/16 05:55:09;;;;;;;0.43;0.43;;;;;;;9.69;82.48;98949.63;5417764;26;20071;-65
2024/04/16 05:57:34;;;;;;;1.20;0.70;;;;;;;9.50;83.65;98952.75;5479077;26;20013;-65
2024/04/16 06:00:00;;;;;;;1.63;0.60;;;;;;;9.13;84.50;98949.00;5473014;26;20006;-66
2024/04/16 06:02:26;;;;;;;0.60;0.52;;;;;;;9.21;85.67;98947.84;5474814;26;20051;-64
2024/04/16 06:04:52;;;;;;;1.42;0.55;;;;;;;9.46;84.80;98961.97;5442963;26;20016;-67
2024/04/16 06:07:18;;;;;;;1.50;0.75;;;;;;;9.51;84.81;98965.03;5452015;26;20002;-65
2024/04/16 06:09:44;;;;;;;1.02;0.57;;;;;;;9.53;84.70;98959.25;5445959;26;20006;-65
2024/04/16 06:12:09;;;;;;;0.90;0.65;;;;;;;9.25;84.34;98956.66;5450390;26;19998;-65
2024/04/16 06:14:35;;;;;;;0.65;0.65;;;;;;;9.23;86.15;98957.06;5486691;26;20348;-65
2024/04/16 06:17:00;;;;;;;0.45;0.43;;;;;;;9.36;85.38;98960.09;5450505;26;19998;-65
2024/04/16 06:19:25;;;;;;;0.60;0.40;;;;;;;9.44;85.15;98954.31;5442169;26;19994;-65
2024/04/16 06:21:51;;;;;;;0.60;0.60;;;;;;;9.62;83.72;98970.38;5421485;26;20689;-65
2024/04/16 06:24:17;;;;;;;1.55;0.88;;;;;;;9.80;83.44;98965.69;5479656;26;20020;-65
2024/04/16 06:26:43;;;;;;;1.55;0.60;;;;;;;9.20;85.54;98963.19;5457745;26;19998;-65
2024/04/16 06:29:08;;;;;;;1.10;0.93;;;;;;;9.50;85.67;98974.25;5457266;26;20455;-65
2024/04/16 06:31:34;;;;;;;1.15;0.80;;;;;;;9.42;85.26;98966.59;5421449;26;20738;-66
2024/04/16 06:34:00;;;;;;;1.80;1.10;;;;;;;9.31;86.19;98963.19;5475164;26;19999;-66
2024/04/16 06:36:25;;;;;;;1.35;0.93;;;;;;;9.11;85.99;98968.19;5469256;26;20401;-64
2024/04/16 06:38:50;;;;;;;1.73;0.68;;;;;;;9.24;86.20;98972.00;5474022;26;20066;-64
2024/04/16 06:41:16;;;;;;;1.95;1.10;;;;;;;9.40;86.51;98975.06;5422939;26;20087;-64
2024/04/16 06:43:41;;;;;;;0.93;0.82;;;;;;;9.78;84.76;98978.75;5482532;26;19998;-64
2024/04/16 06:46:07;;;;;;;2.50;1.13;;;;;;;9.93;84.28;98970.22;5470021;26;20061;-66
2024/04/16 06:48:33;;;;;;;2.13;1.02;;;;;;;10.19;83.93;98970.91;5474732;26;20025;-65
2024/04/16 06:50:59;;;;;;;1.27;0.82;;;;;;;10.24;83.00;98978.56;5441646;26;21879;-64
2024/04/16 06:53:25;;;;;;;0.77;0.77;;;;;;;10.29;82.78;98981.59;5474108;26;20030;-65
2024/04/16 06:56:00;;;;;;;1.15;0.77;;;;;;;10.10;82.21;98984.78;5438430;26;20006;-65
2024/04/16 06:58:26;;;;;;;1.35;0.95;;;;;;;10.05;81.79;98977.09;5451034;26;20017;-65
2024/04/16 07:00:51;;;;;;;1.85;1.23;;;;;;;10.40;80.81;98985.00;5471258;26;20005;-64
2024/04/16 07:03:17;;;;;;;1.73;0.90;;;;;;;10.63;79.98;98990.59;5480578;26;20002;-66
2024/04/16 07:05:42;;;;;;;1.25;0.90;;;;;;;10.59;78.81;99006.00;5476537;26;20387;-69
2024/04/16 07:08:08;;;;;;;1.27;0.85;;;;;;;10.52;78.58;98997.22;5474473;26;20016;-65
2024/04/16 07:10:33;;;;;;;1.52;0.85;;;;;;;10.57;79.13;99007.56;5458449;26;19995;-65
2024/04/16 07:12:59;;;;;;;2.05;1.08;;;;;;;10.44;79.68;99004.56;5480732;26;20028;-65
2024/04/16 07:15:24;;;;;;;1.23;0.95;;;;;;;10.50;79.02;98997.63;5462991;26;19994;-64
2024/04/16 07:17:50;;;;;;;1.40;1.00;;;;;;;10.62;78.61;99020.59;5416372;26;20661;-64
2024/04/16 07:20:15;;;;;;;1.48;0.93;;;;;;;10.74;77.97;99014.75;5449904;26;19998;-65
2024/04/16 07:22:41;;;;;;;1.25;1.15;;;;;;;10.72;78.16;99012.44;5421007;26;20012;-65
2024/04/16 07:25:06;;;;;;;1.70;1.13;;;;;;;10.61;77.83;99017.16;5421427;26;20007;-64
2024/04/16 07:27:32;;;;;;;3.85;1.30;;;;;;;10.55;77.50;99010.66;5466219;26;20091;-65
2024/04/16 07:29:57;;;;;;;2.88;1.45;;;;;;;10.76;77.24;99020.53;5442732;26;20009;-64
2024/04/16 07:32:22;;;;;;;2.28;1.33;;;;;;;10.57;77.39;99021.78;5441316;26;19998;-64
2024/04/16 07:34:48;;;;;;;2.05;1.15;;;;;;;10.65;77.74;99020.56;5441478;26;20003;-64
2024/04/16 07:37:13;;;;;;;2.95;1.30;;;;;;;11.14;77.97;99015.97;5476333;26;20079;-65
2024/04/16 07:39:39;;;;;;;2.92;1.60;;;;;;;11.35;76.47;99023.84;5440147;26;20039;-65
2024/04/16 07:42:04;;;;;;;7.25;1.40;;;;;;;11.71;75.76;99017.72;5446583;26;20022;-65
2024/04/16 07:44:30;;;;;;;1.75;1.15;;;;;;;12.00;74.71;99028.19;5447407;26;19999;-64
2024/04/16 07:46:58;;;;;;;3.17;1.52;;;;;;;11.80;73.94;99033.44;5444365;26;19999;-64
2024/04/16 07:49:23;;;;;;;2.85;1.38;;;;;;;12.10;73.05;99038.84;5443849;26;20009;-64
2024/04/16 07:51:49;;;;;;;2.40;1.23;;;;;;;11.96;72.61;99036.34;5468212;26;19994;-64
2024/04/16 07:54:14;;;;;;;2.25;1.08;;;;;;;11.87;73.20;99037.97;5485057;26;20448;-64
2024/04/16 07:56:40;;;;;;;1.25;1.08;;;;;;;11.82;73.14;99039.19;5453996;26;19999;-65
2024/04/16 07:59:05;;;;;;;1.52;1.13;;;;;;;11.73;73.96;99046.97;5473804;26;19999;-65
2024/04/16 08:01:30;;;;;;;6.03;1.30;;;;;;;11.70;73.24;99042.41;5441639;26;20032;-65
2024/04/16 08:03:56;;;;;;;1.45;1.00;;;;;;;11.64;73.79;99046.66;5443038;26;20467;-64
2024/04/16 08:06:21;;;;;;;1.88;0.80;;;;;;;11.63;74.00;99048.59;5437764;26;20067;-65
2024/04/16 08:08:49;;;;;;;1.92;1.00;;;;;;;11.51;73.97;99057.22;5472806;26;20008;-65
2024/04/16 08:11:15;;;;;;;1.42;1.00;;;;;;;11.46;74.62;99057.63;5438128;26;19998;-64
2024/04/16 08:13:41;;;;;;;1.23;1.02;;;;;;;11.33;74.70;99059.28;5483002;26;20009;-64
2024/04/16 08:16:07;;;;;;;0.82;0.80;;;;;;;11.18;75.80;99063.28;5422178;26;20005;-65
2024/04/16 08:18:32;;;;;;;4.05;1.48;;;;;;;11.29;75.73;99063.16;5443181;26;20071;-64
2024/04/16 08:20:58;;;;;;;1.33;1.05;;;;;;;11.41;75.67;99068.84;5447329;26;20399;-65
2024/04/16 08:23:24;;;;;;;3.45;1.02;;;;;;;11.63;75.41;99075.56;5483427;26;20009;-66
2024/04/16 08:25:59;;;;;;;4.90;1.33;;;;;;;11.67;74.76;99067.47;5465436;26;19991;-64
2024/04/16 08:28:25;;;;;;;1.67;0.82;;;;;;;11.23;76.48;99073.63;5467817;26;20014;-65
2024/04/16 08:30:53;;;;;;;1.95;1.00;;;;;;;11.37;76.06;99076.19;5436274;26;20013;-65
2024/04/16 08:33:20;;;;;;;1.23;0.93;;;;;;;11.33;75.51;99074.69;5464676;26;20073;-67
2024/04/16 08:35:46;;;;;;;1.42;1.02;;;;;;;11.52;76.13;99083.00;5470522;26;20006;-64
2024/04/16 08:38:12;;;;;;;2.85;1.10;;;;;;;11.41;76.12;99092.34;5472274;26;20475;-64
2024/04/16 08:40:37;;;;;;;2.38;1.25;;;;;;;11.45;75.49;99087.69;5439424;26;19998;-62
2024/04/16 08:43:03;;;;;;;3.45;1.40;;;;;;;11.07;76.81;99086.06;5421616;26;20013;-62
2024/04/16 08:45:29;;;;;;;1.83;1.45;;;;;;;11.11;76.68;99095.66;5447116;26;20006;-67
2024/04/16 08:47:57;;;;;;;2.67;1.20;;;;;;;11.36;76.28;99093.53;5468771;26;20006;-67
2024/04/16 08:50:23;;;;;;;2.17;1.17;;;;;;;11.61;75.87;99104.09;5471965;26;19999;-67
2024/04/16 08:52:50;;;;;;;2.03;1.40;;;;;;;11.56;76.76;99099.13;5449963;26;20016;-67
2024/04/16 08:55:18;;;;;;;1.33;1.10;;;;;;;11.41;77.21;99106.59;5418559;26;20012;-66
2024/04/16 08:57:45;;;;;;;4.47;1.13;;;;;;;11.59;76.93;99098.34;5479510;26;20009;-67
2024/04/16 09:00:11;;;;;;;2.15;1.33;;;;;;;11.58;77.53;99113.75;5470194;26;20593;-65
2024/04/16 09:02:38;;;;;;;2.13;1.40;;;;;;;11.63;77.23;99116.00;5444861;26;20072;-66
2024/04/16 09:05:04;;;;;;;1.13;1.00;;;;;;;11.52;78.91;99112.66;5438387;26;20011;-66
2024/04/16 09:07:30;;;;;;;3.42;1.23;;;;;;;11.55;79.56;99121.88;5466089;26;20023;-67
2024/04/16 09:09:56;;;;;;;1.10;1.02;;;;;;;11.81;78.93;99112.44;5438145;26;20017;-67
2024/04/16 09:12:22;;;;;;;2.13;1.38;;;;;;;11.92;79.49;99119.25;5468664;26;19994;-68
2024/04/16 09:14:48;;;;;;;2.42;1.27;;;;;;;11.97;79.17;99118.78;5446464;26;20356;-62
2024/04/16 09:17:14;;;;;;;2.58;1.67;;;;;;;12.09;79.21;99120.97;5420796;26;20019;-64
2024/04/16 09:19:41;;;;;;;2.90;1.60;;;;;;;12.38;78.32;99132.22;5469716;26;20006;-64
2024/04/16 09:22:07;;;;;;;2.00;1.58;;;;;;;12.55;77.52;99132.00;5434721;26;20002;-63
2024/04/16 09:24:32;;;;;;;3.00;1.95;;;;;;;12.79;77.46;99138.25;5447397;26;19998;-64
2024/04/16 09:27:03;;;;;;;3.97;2.30;;;;;;;12.81;76.98;99137.84;5448155;26;19999;-64
2024/04/16 09:29:28;;;;;;;3.47;1.90;;;;;;;13.09;74.98;99138.22;5444548;26;20434;-63
2024/04/16 09:32:03;;;;;;;4.28;2.40;;;;;;;13.40;74.08;99144.31;5449763;26;20010;-63
2024/04/16 09:34:29;;;;;;;2.65;1.83;;;;;;;13.71;74.07;99145.75;5446102;26;20078;-64
2024/04/16 09:36:55;;;;;;;7.93;2.20;;;;;;;13.94;72.61;99147.66;5473584;26;19998;-64
2024/04/16 09:39:22;;;;;;;5.60;2.42;;;;;;;13.67;69.21;99146.97;5423797;26;20007;-63
2024/04/16 09:41:48;;;;;;;5.90;2.53;;;;;;;13.72;68.30;99151.94;5479505;26;20013;-63
2024/04/16 09:44:16;;;;;;;5.35;2.50;;;;;;;13.53;68.41;99156.09;5445515;26;20339;-63
2024/04/16 09:46:43;;;;;;;6.38;2.30;;;;;;;13.51;68.24;99153.81;5471912;26;20027;-65
2024/04/16 09:49:12;;;;;;;3.28;1.92;;;;;;;13.25;68.42;99161.94;5474219;26;20013;-66
2024/04/16 09:51:38;;;;;;;3.75;1.85;;;;;;;12.97;68.75;99162.34;5474161;26;19994;-63
2024/04/16 09:54:05;;;;;;;6.25;1.60;;;;;;;12.69;69.15;99166.94;5454930;26;20107;-63
2024/04/16 09:56:35;;;;;;;4.25;1.50;;;;;;;12.80;69.93;99164.09;5475498;26;20323;-63
2024/04/16 09:59:02;;;;;;;2.80;1.55;;;;;;;12.76;71.50;99170.69;5469067;26;20070;-63
2024/04/16 10:01:28;;;;;;;2.55;1.40;;;;;;;12.50;72.71;99167.53;5451234;26;20038;-63
2024/04/16 10:03:58;;;;;;;1.38;1.10;;;;;;;12.29;75.72;99175.13;5442197;26;20068;-64
2024/04/16 10:06:23;;;;;;;1.55;1.45;;;;;;;12.38;75.54;99176.19;5453581;26;19998;-63
2024/04/16 10:08:49;;;;;;;1.98;1.48;;;;;;;12.15;75.77;99167.19;5480771;26;19998;-63
2024/04/16 10:11:16;;;;;;;2.03;1.00;;;;;;;12.28;75.48;99177.06;5452647;26;20437;-62
2024/04/16 10:13:41;;;;;;;1.15;0.93;;;;;;;12.70;74.73;99181.19;5480508;26;20017;-64
2024/04/16 10:16:25;;;;;;;1.77;0.98;;;;;;;12.85;73.89;99177.16;5454043;26;19995;-64
2024/04/16 10:18:57;;;;;;;2.33;0.90;;;;;;;12.98;73.00;99178.13;5474900;26;20013;-63
2024/04/16 10:21:23;;;;;;;;;;;;;;;13.10;71.70;99182.25;5477243;26;20038;-63
2024/04/16 10:23:58;;;;;;;1.00;0.82;;;;;;;13.29;71.85;99187.00;5454629;26;19956;-65
2024/04/16 10:26:24;;;;;;;1.00;0.70;;;;;;;13.65;69.85;99192.59;5475360;26;20020;-70
2024/04/16 10:28:55;;;;;;;3.50;1.38;;;;;;;13.95;68.88;99187.88;5478802;26;20370;-67
2024/04/16 10:31:29;;;;;;;2.17;1.42;;;;;;;14.30;67.70;99198.06;5475549;26;20006;-65
2024/04/16 10:33:59;;;;;;;3.42;1.13;;;;;;;14.50;64.92;99189.97;5457297;26;20073;-65
2024/04/16 10:36:26;;;;;;;2.67;1.50;;;;;;;14.53;65.16;99199.22;5444073;26;20010;-66
2024/04/16 10:38:51;;;;;;;2.42;1.30;;;;;;;14.43;64.72;99190.88;5480033;26;20005;-65
2024/04/16 10:41:28;;;;;;;4.50;1.00;;;;;;;14.37;64.95;99203.38;5454791;26;20030;-65
2024/04/16 10:43:55;;;;;;;2.60;1.35;;;;;;;14.09;65.49;99194.97;5453792;26;20009;-65
2024/04/16 10:46:22;;;;;;;6.63;1.48;;;;;;;13.96;65.72;99205.63;5447318;26;20003;-66
2024/04/16 10:48:48;;;;;;;1.58;1.10;;;;;;;13.89;65.65;99208.47;5442525;26;20090;-64
2024/04/16 10:51:14;;;;;;;3.88;1.55;;;;;;;14.01;66.69;99207.88;5478830;26;20079;-66
2024/04/16 10:53:40;;;;;;;1.73;1.45;;;;;;;14.02;66.50;99209.41;5468533;26;19994;-66
2024/04/16 10:56:08;;;;;;;4.85;1.27;;;;;;;14.07;66.43;99217.03;5477714;26;20005;-66
2024/04/16 10:58:34;;;;;;;2.40;1.58;;;;;;;14.00;66.29;99208.25;5435349;26;20013;-65
2024/04/16 11:01:01;;;;;;;5.82;1.13;;;;;;;14.12;65.32;99215.78;5445339;26;20408;-67
2024/04/16 11:03:27;;;;;;;1.88;1.30;;;;;;;14.26;63.89;99208.19;5446409;26;19998;-66
2024/04/16 11:05:56;;;;;;;3.58;1.35;;;;;;;14.29;63.37;99218.22;5472838;26;20006;-65
2024/04/16 11:08:21;;;;;;;0.95;0.73;;;;;;;14.67;63.35;99213.25;5450174;26;20018;-65
2024/04/16 11:10:49;;;;;;;1.75;1.00;;;;;;;14.61;61.17;99219.56;5439480;26;20012;-66
2024/04/16 11:13:19;;;;;;;5.03;1.08;;;;;;;14.79;61.05;99225.41;5479885;26;20001;-65
2024/04/16 11:15:44;;;;;;;2.35;1.30;;;;;;;15.00;60.62;99220.28;5450644;26;19998;-70
2024/04/16 11:18:10;;;;;;;1.77;0.55;;;;;;;14.89;59.84;99225.19;5451959;26;20352;-65
2024/04/16 11:20:36;;;;;;;2.00;0.68;;;;;;;14.76;56.77;99228.94;5449580;26;20017;-65
2024/04/16 11:23:04;;;;;;;2.65;1.17;;;;;;;14.57;57.11;99227.78;5449951;26;20013;-67
2024/04/16 11:25:31;;;;;;;1.02;0.75;;;;;;;14.77;57.57;99235.91;5450340;26;19998;-65
2024/04/16 11:27:57;;;;;;;0.75;0.55;;;;;;;15.08;59.05;99224.38;5476053;26;20007;-65
2024/04/16 11:30:24;;;;;;;0.70;0.60;;;;;;;15.26;57.84;99224.00;5483120;26;20573;-65
2024/04/16 11:32:50;;;;;;;0.90;0.50;;;;;;;15.37;57.57;99235.38;5477327;26;20004;-65
2024/04/16 11:35:15;;;;;;;0.30;0.30;;;;;;;15.29;56.93;99231.31;5475113;26;20071;-66
2024/04/16 11:37:44;;;;;;;1.77;0.57;;;;;;;15.39;56.41;99241.16;5447480;26;20006;-63